sensor_id;sensor_type;location;lat;lon;timestamp;P1;durP1;ratioP1;P2;durP2;ratioP2
65706;SDS011;52423;43.512;5.220;2024-02-14T00:01:27;14.27;;;10.43;;
65706;SDS011;52423;43.512;5.220;2024-02-14T00:03:53;12.57;;;11.25;;
65706;SDS011;52423;43.512;5.220;2024-02-14T00:06:19;10.38;;;9.38;;
65706;SDS011;52423;43.512;5.220;2024-02-14T00:08:44;12.45;;;11.07;;
65706;SDS011;52423;43.512;5.220;2024-02-14T00:11:09;14.68;;;11.25;;
65706;SDS011;52423;43.512;5.220;2024-02-14T00:13:35;10.07;;;9.07;;
65706;SDS011;52423;43.512;5.220;2024-02-14T00:16:01;11.38;;;10.25;;
65706;SDS011;52423;43.512;5.220;2024-02-14T00:18:26;12.68;;;10.65;;
65706;SDS011;52423;43.512;5.220;2024-02-14T00:20:52;10.57;;;8.68;;
65706;SDS011;52423;43.512;5.220;2024-02-14T00:23:17;16.10;;;9.00;;
65706;SDS011;52423;43.512;5.220;2024-02-14T00:25:43;12.52;;;11.40;;
65706;SDS011;52423;43.512;5.220;2024-02-14T00:28:08;10.75;;;9.63;;
65706;SDS011;52423;43.512;5.220;2024-02-14T00:30:33;8.27;;;7.45;;
65706;SDS011;52423;43.512;5.220;2024-02-14T00:32:59;11.48;;;9.68;;
65706;SDS011;52423;43.512;5.220;2024-02-14T00:35:25;11.05;;;9.68;;
65706;SDS011;52423;43.512;5.220;2024-02-14T00:37:50;13.65;;;10.75;;
65706;SDS011;52423;43.512;5.220;2024-02-14T00:40:15;12.38;;;11.07;;
65706;SDS011;52423;43.512;5.220;2024-02-14T00:42:41;13.60;;;12.02;;
65706;SDS011;52423;43.512;5.220;2024-02-14T00:45:07;12.82;;;9.55;;
65706;SDS011;52423;43.512;5.220;2024-02-14T00:47:35;11.52;;;10.30;;
65706;SDS011;52423;43.512;5.220;2024-02-14T00:50:01;12.38;;;11.38;;
65706;SDS011;52423;43.512;5.220;2024-02-14T00:52:27;11.20;;;10.20;;
65706;SDS011;52423;43.512;5.220;2024-02-14T00:54:53;12.10;;;11.00;;
65706;SDS011;52423;43.512;5.220;2024-02-14T00:57:18;12.48;;;11.18;;
65706;SDS011;52423;43.512;5.220;2024-02-14T00:59:44;14.35;;;11.63;;
65706;SDS011;52423;43.512;5.220;2024-02-14T01:02:09;14.02;;;11.25;;
65706;SDS011;52423;43.512;5.220;2024-02-14T01:04:35;16.10;;;9.57;;
65706;SDS011;52423;43.512;5.220;2024-02-14T01:07:03;10.35;;;8.00;;
65706;SDS011;52423;43.512;5.220;2024-02-14T01:09:29;15.50;;;11.13;;
65706;SDS011;52423;43.512;5.220;2024-02-14T01:11:54;15.50;;;12.13;;
65706;SDS011;52423;43.512;5.220;2024-02-14T01:14:20;13.45;;;12.10;;
65706;SDS011;52423;43.512;5.220;2024-02-14T01:16:46;13.48;;;12.07;;
65706;SDS011;52423;43.512;5.220;2024-02-14T01:19:12;11.75;;;10.55;;
65706;SDS011;52423;43.512;5.220;2024-02-14T01:21:38;13.50;;;12.27;;
65706;SDS011;52423;43.512;5.220;2024-02-14T01:24:03;12.90;;;11.60;;
65706;SDS011;52423;43.512;5.220;2024-02-14T01:26:33;12.05;;;9.10;;
65706;SDS011;52423;43.512;5.220;2024-02-14T01:28:59;12.93;;;11.60;;
65706;SDS011;52423;43.512;5.220;2024-02-14T01:31:26;13.02;;;11.75;;
65706;SDS011;52423;43.512;5.220;2024-02-14T01:33:51;11.15;;;10.02;;
65706;SDS011;52423;43.512;5.220;2024-02-14T01:36:17;11.38;;;8.70;;
65706;SDS011;52423;43.512;5.220;2024-02-14T01:38:42;10.43;;;9.20;;
65706;SDS011;52423;43.512;5.220;2024-02-14T01:41:08;12.55;;;11.35;;
65706;SDS011;52423;43.512;5.220;2024-02-14T01:43:33;13.40;;;12.30;;
65706;SDS011;52423;43.512;5.220;2024-02-14T01:46:06;10.75;;;9.65;;
65706;SDS011;52423;43.512;5.220;2024-02-14T01:48:35;11.15;;;9.70;;
65706;SDS011;52423;43.512;5.220;2024-02-14T01:51:01;12.35;;;10.95;;
65706;SDS011;52423;43.512;5.220;2024-02-14T01:53:28;12.30;;;11.13;;
65706;SDS011;52423;43.512;5.220;2024-02-14T01:58:24;11.05;;;9.52;;
65706;SDS011;52423;43.512;5.220;2024-02-14T02:00:49;9.80;;;8.80;;
65706;SDS011;52423;43.512;5.220;2024-02-14T02:03:20;10.68;;;9.52;;
65706;SDS011;52423;43.512;5.220;2024-02-14T02:05:47;9.35;;;8.00;;
65706;SDS011;52423;43.512;5.220;2024-02-14T02:08:13;10.32;;;9.32;;
65706;SDS011;52423;43.512;5.220;2024-02-14T02:10:39;12.60;;;11.05;;
65706;SDS011;52423;43.512;5.220;2024-02-14T02:13:05;11.02;;;9.15;;
65706;SDS011;52423;43.512;5.220;2024-02-14T02:15:31;11.13;;;8.50;;
65706;SDS011;52423;43.512;5.220;2024-02-14T02:17:56;9.32;;;8.38;;
65706;SDS011;52423;43.512;5.220;2024-02-14T02:20:22;11.05;;;9.95;;
65706;SDS011;52423;43.512;5.220;2024-02-14T02:22:47;8.38;;;6.60;;
65706;SDS011;52423;43.512;5.220;2024-02-14T02:25:13;8.45;;;6.78;;
65706;SDS011;52423;43.512;5.220;2024-02-14T02:27:39;9.05;;;7.60;;
65706;SDS011;52423;43.512;5.220;2024-02-14T02:30:05;8.80;;;7.68;;
65706;SDS011;52423;43.512;5.220;2024-02-14T02:32:32;9.50;;;8.15;;
65706;SDS011;52423;43.512;5.220;2024-02-14T02:34:57;11.20;;;9.73;;
65706;SDS011;52423;43.512;5.220;2024-02-14T02:37:23;14.77;;;13.60;;
65706;SDS011;52423;43.512;5.220;2024-02-14T02:39:49;11.80;;;9.48;;
65706;SDS011;52423;43.512;5.220;2024-02-14T02:42:16;11.18;;;9.95;;
65706;SDS011;52423;43.512;5.220;2024-02-14T02:44:45;10.60;;;9.05;;
65706;SDS011;52423;43.512;5.220;2024-02-14T02:47:11;11.80;;;10.73;;
65706;SDS011;52423;43.512;5.220;2024-02-14T02:49:37;9.50;;;6.35;;
65706;SDS011;52423;43.512;5.220;2024-02-14T02:52:03;13.10;;;11.80;;
65706;SDS011;52423;43.512;5.220;2024-02-14T02:54:29;9.60;;;7.28;;
65706;SDS011;52423;43.512;5.220;2024-02-14T02:56:54;10.88;;;8.13;;
65706;SDS011;52423;43.512;5.220;2024-02-14T02:59:19;11.23;;;9.30;;
65706;SDS011;52423;43.512;5.220;2024-02-14T03:01:45;10.95;;;9.43;;
65706;SDS011;52423;43.512;5.220;2024-02-14T03:04:10;11.73;;;10.18;;
65706;SDS011;52423;43.512;5.220;2024-02-14T03:06:38;10.93;;;9.38;;
65706;SDS011;52423;43.512;5.220;2024-02-14T03:09:03;9.98;;;8.50;;
65706;SDS011;52423;43.512;5.220;2024-02-14T03:11:30;12.05;;;10.32;;
65706;SDS011;52423;43.512;5.220;2024-02-14T03:13:56;9.48;;;8.35;;
65706;SDS011;52423;43.512;5.220;2024-02-14T03:16:21;11.13;;;9.40;;
65706;SDS011;52423;43.512;5.220;2024-02-14T03:18:49;11.18;;;6.25;;
65706;SDS011;52423;43.512;5.220;2024-02-14T03:21:15;14.25;;;9.93;;
65706;SDS011;52423;43.512;5.220;2024-02-14T03:23:40;10.25;;;8.35;;
65706;SDS011;52423;43.512;5.220;2024-02-14T03:26:06;11.90;;;9.10;;
65706;SDS011;52423;43.512;5.220;2024-02-14T03:28:33;11.95;;;10.75;;
65706;SDS011;52423;43.512;5.220;2024-02-14T03:30:58;16.50;;;11.05;;
65706;SDS011;52423;43.512;5.220;2024-02-14T03:33:24;10.38;;;7.90;;
65706;SDS011;52423;43.512;5.220;2024-02-14T03:35:49;13.52;;;12.10;;
65706;SDS011;52423;43.512;5.220;2024-02-14T03:38:24;12.60;;;11.38;;
65706;SDS011;52423;43.512;5.220;2024-02-14T03:40:52;10.60;;;8.80;;
65706;SDS011;52423;43.512;5.220;2024-02-14T03:43:18;11.10;;;8.93;;
65706;SDS011;52423;43.512;5.220;2024-02-14T03:45:43;11.88;;;10.38;;
65706;SDS011;52423;43.512;5.220;2024-02-14T03:48:08;11.32;;;9.32;;
65706;SDS011;52423;43.512;5.220;2024-02-14T03:50:38;8.63;;;6.15;;
65706;SDS011;52423;43.512;5.220;2024-02-14T03:53:04;10.60;;;8.63;;
65706;SDS011;52423;43.512;5.220;2024-02-14T03:55:29;9.25;;;8.27;;
65706;SDS011;52423;43.512;5.220;2024-02-14T03:57:55;9.85;;;8.52;;
65706;SDS011;52423;43.512;5.220;2024-02-14T04:00:21;8.82;;;6.55;;
65706;SDS011;52423;43.512;5.220;2024-02-14T04:02:47;8.68;;;7.57;;
65706;SDS011;52423;43.512;5.220;2024-02-14T04:05:14;12.48;;;11.40;;
65706;SDS011;52423;43.512;5.220;2024-02-14T04:07:39;9.90;;;8.88;;
65706;SDS011;52423;43.512;5.220;2024-02-14T04:10:05;11.57;;;10.38;;
65706;SDS011;52423;43.512;5.220;2024-02-14T04:12:31;8.98;;;7.65;;
65706;SDS011;52423;43.512;5.220;2024-02-14T04:14:57;8.30;;;7.20;;
65706;SDS011;52423;43.512;5.220;2024-02-14T04:17:23;10.85;;;9.85;;
65706;SDS011;52423;43.512;5.220;2024-02-14T04:19:49;8.48;;;7.65;;
65706;SDS011;52423;43.512;5.220;2024-02-14T04:22:15;10.00;;;9.05;;
65706;SDS011;52423;43.512;5.220;2024-02-14T04:24:40;8.32;;;7.63;;
65706;SDS011;52423;43.512;5.220;2024-02-14T04:27:05;8.63;;;7.80;;
65706;SDS011;52423;43.512;5.220;2024-02-14T04:29:31;10.93;;;8.95;;
65706;SDS011;52423;43.512;5.220;2024-02-14T04:32:01;13.27;;;12.02;;
65706;SDS011;52423;43.512;5.220;2024-02-14T04:34:27;8.80;;;8.07;;
65706;SDS011;52423;43.512;5.220;2024-02-14T04:36:53;8.68;;;7.85;;
65706;SDS011;52423;43.512;5.220;2024-02-14T04:39:18;11.18;;;9.98;;
65706;SDS011;52423;43.512;5.220;2024-02-14T04:41:44;9.23;;;7.65;;
65706;SDS011;52423;43.512;5.220;2024-02-14T04:44:09;8.15;;;7.38;;
65706;SDS011;52423;43.512;5.220;2024-02-14T04:46:35;9.43;;;7.55;;
65706;SDS011;52423;43.512;5.220;2024-02-14T04:49:04;8.25;;;7.43;;
65706;SDS011;52423;43.512;5.220;2024-02-14T04:51:29;10.10;;;5.85;;
65706;SDS011;52423;43.512;5.220;2024-02-14T04:53:56;10.85;;;7.93;;
65706;SDS011;52423;43.512;5.220;2024-02-14T04:56:25;8.90;;;7.13;;
65706;SDS011;52423;43.512;5.220;2024-02-14T04:58:52;9.63;;;8.82;;
65706;SDS011;52423;43.512;5.220;2024-02-14T05:01:18;7.35;;;6.35;;
65706;SDS011;52423;43.512;5.220;2024-02-14T05:03:44;8.40;;;7.53;;
65706;SDS011;52423;43.512;5.220;2024-02-14T05:06:09;8.75;;;7.63;;
65706;SDS011;52423;43.512;5.220;2024-02-14T05:08:34;10.55;;;9.75;;
65706;SDS011;52423;43.512;5.220;2024-02-14T05:11:00;11.07;;;8.50;;
65706;SDS011;52423;43.512;5.220;2024-02-14T05:13:25;7.53;;;6.82;;
65706;SDS011;52423;43.512;5.220;2024-02-14T05:15:51;9.73;;;8.57;;
65706;SDS011;52423;43.512;5.220;2024-02-14T05:18:16;8.98;;;8.07;;
65706;SDS011;52423;43.512;5.220;2024-02-14T05:20:41;8.63;;;7.93;;
65706;SDS011;52423;43.512;5.220;2024-02-14T05:23:07;9.18;;;8.38;;
65706;SDS011;52423;43.512;5.220;2024-02-14T05:25:33;8.50;;;7.18;;
65706;SDS011;52423;43.512;5.220;2024-02-14T05:27:58;7.68;;;6.68;;
65706;SDS011;52423;43.512;5.220;2024-02-14T05:30:25;8.35;;;6.80;;
65706;SDS011;52423;43.512;5.220;2024-02-14T05:32:51;8.40;;;7.13;;
65706;SDS011;52423;43.512;5.220;2024-02-14T05:35:17;8.43;;;7.70;;
65706;SDS011;52423;43.512;5.220;2024-02-14T05:37:43;11.07;;;10.13;;
65706;SDS011;52423;43.512;5.220;2024-02-14T05:40:08;9.38;;;7.55;;
65706;SDS011;52423;43.512;5.220;2024-02-14T05:42:34;7.28;;;6.35;;
65706;SDS011;52423;43.512;5.220;2024-02-14T05:44:59;8.15;;;7.32;;
65706;SDS011;52423;43.512;5.220;2024-02-14T05:47:25;8.18;;;7.55;;
65706;SDS011;52423;43.512;5.220;2024-02-14T05:49:51;7.88;;;5.15;;
65706;SDS011;52423;43.512;5.220;2024-02-14T05:52:16;8.05;;;7.25;;
65706;SDS011;52423;43.512;5.220;2024-02-14T05:54:44;6.65;;;5.95;;
65706;SDS011;52423;43.512;5.220;2024-02-14T05:57:10;8.55;;;7.75;;
65706;SDS011;52423;43.512;5.220;2024-02-14T05:59:35;7.95;;;7.10;;
65706;SDS011;52423;43.512;5.220;2024-02-14T06:02:01;8.57;;;7.82;;
65706;SDS011;52423;43.512;5.220;2024-02-14T06:04:28;7.13;;;6.43;;
65706;SDS011;52423;43.512;5.220;2024-02-14T06:06:53;7.00;;;5.72;;
65706;SDS011;52423;43.512;5.220;2024-02-14T06:09:18;6.97;;;6.03;;
65706;SDS011;52423;43.512;5.220;2024-02-14T06:11:44;7.68;;;6.80;;
65706;SDS011;52423;43.512;5.220;2024-02-14T06:14:09;8.25;;;7.45;;
65706;SDS011;52423;43.512;5.220;2024-02-14T06:16:35;9.23;;;6.28;;
65706;SDS011;52423;43.512;5.220;2024-02-14T06:19:00;11.80;;;7.03;;
65706;SDS011;52423;43.512;5.220;2024-02-14T06:21:29;8.95;;;8.07;;
65706;SDS011;52423;43.512;5.220;2024-02-14T06:23:54;7.32;;;6.43;;
65706;SDS011;52423;43.512;5.220;2024-02-14T06:26:20;11.10;;;10.25;;
65706;SDS011;52423;43.512;5.220;2024-02-14T06:28:45;9.45;;;8.50;;
65706;SDS011;52423;43.512;5.220;2024-02-14T06:31:11;7.60;;;6.07;;
65706;SDS011;52423;43.512;5.220;2024-02-14T06:33:36;6.97;;;6.28;;
65706;SDS011;52423;43.512;5.220;2024-02-14T06:36:02;9.95;;;8.50;;
65706;SDS011;52423;43.512;5.220;2024-02-14T06:38:27;7.03;;;4.72;;
65706;SDS011;52423;43.512;5.220;2024-02-14T06:40:53;9.15;;;8.35;;
65706;SDS011;52423;43.512;5.220;2024-02-14T06:43:18;8.73;;;6.47;;
65706;SDS011;52423;43.512;5.220;2024-02-14T06:45:44;6.88;;;6.28;;
65706;SDS011;52423;43.512;5.220;2024-02-14T06:48:10;7.00;;;6.30;;
65706;SDS011;52423;43.512;5.220;2024-02-14T06:50:35;6.47;;;4.93;;
65706;SDS011;52423;43.512;5.220;2024-02-14T06:53:01;11.95;;;6.22;;
65706;SDS011;52423;43.512;5.220;2024-02-14T06:55:27;9.95;;;9.07;;
65706;SDS011;52423;43.512;5.220;2024-02-14T06:57:52;6.82;;;5.90;;
65706;SDS011;52423;43.512;5.220;2024-02-14T07:00:19;7.25;;;6.20;;
65706;SDS011;52423;43.512;5.220;2024-02-14T07:02:44;7.28;;;6.20;;
65706;SDS011;52423;43.512;5.220;2024-02-14T07:05:13;8.50;;;7.70;;
65706;SDS011;52423;43.512;5.220;2024-02-14T07:07:39;7.50;;;6.55;;
65706;SDS011;52423;43.512;5.220;2024-02-14T07:10:05;10.25;;;6.85;;
65706;SDS011;52423;43.512;5.220;2024-02-14T07:12:32;11.55;;;9.13;;
65706;SDS011;52423;43.512;5.220;2024-02-14T07:14:57;10.00;;;9.00;;
65706;SDS011;52423;43.512;5.220;2024-02-14T07:17:23;8.07;;;7.38;;
65706;SDS011;52423;43.512;5.220;2024-02-14T07:19:48;7.13;;;6.05;;
65706;SDS011;52423;43.512;5.220;2024-02-14T07:22:15;6.70;;;6.10;;
65706;SDS011;52423;43.512;5.220;2024-02-14T07:24:41;8.45;;;7.70;;
65706;SDS011;52423;43.512;5.220;2024-02-14T07:27:07;7.95;;;5.63;;
65706;SDS011;52423;43.512;5.220;2024-02-14T07:29:33;7.35;;;6.65;;
65706;SDS011;52423;43.512;5.220;2024-02-14T07:31:59;8.13;;;7.10;;
65706;SDS011;52423;43.512;5.220;2024-02-14T07:34:27;7.22;;;6.55;;
65706;SDS011;52423;43.512;5.220;2024-02-14T07:36:52;8.30;;;7.55;;
65706;SDS011;52423;43.512;5.220;2024-02-14T07:39:18;8.10;;;7.35;;
65706;SDS011;52423;43.512;5.220;2024-02-14T07:41:43;7.93;;;5.78;;
65706;SDS011;52423;43.512;5.220;2024-02-14T07:44:09;8.98;;;6.72;;
65706;SDS011;52423;43.512;5.220;2024-02-14T07:46:34;8.63;;;5.72;;
65706;SDS011;52423;43.512;5.220;2024-02-14T07:49:00;11.70;;;10.77;;
65706;SDS011;52423;43.512;5.220;2024-02-14T07:51:25;7.75;;;6.35;;
65706;SDS011;52423;43.512;5.220;2024-02-14T07:53:53;12.32;;;10.38;;
65706;SDS011;52423;43.512;5.220;2024-02-14T07:56:18;7.75;;;6.85;;
65706;SDS011;52423;43.512;5.220;2024-02-14T07:58:43;8.85;;;7.95;;
65706;SDS011;52423;43.512;5.220;2024-02-14T08:01:09;6.88;;;6.18;;
65706;SDS011;52423;43.512;5.220;2024-02-14T08:03:34;7.75;;;6.95;;
65706;SDS011;52423;43.512;5.220;2024-02-14T08:05:59;9.25;;;6.75;;
65706;SDS011;52423;43.512;5.220;2024-02-14T08:08:25;5.88;;;4.35;;
65706;SDS011;52423;43.512;5.220;2024-02-14T08:10:52;6.25;;;5.65;;
65706;SDS011;52423;43.512;5.220;2024-02-14T08:13:18;6.28;;;5.68;;
65706;SDS011;52423;43.512;5.220;2024-02-14T08:15:43;7.53;;;6.30;;
65706;SDS011;52423;43.512;5.220;2024-02-14T08:18:09;6.90;;;5.75;;
65706;SDS011;52423;43.512;5.220;2024-02-14T08:20:35;6.75;;;6.15;;
65706;SDS011;52423;43.512;5.220;2024-02-14T08:23:00;5.63;;;5.03;;
65706;SDS011;52423;43.512;5.220;2024-02-14T08:25:25;6.30;;;4.88;;
65706;SDS011;52423;43.512;5.220;2024-02-14T08:27:51;7.80;;;7.05;;
65706;SDS011;52423;43.512;5.220;2024-02-14T08:30:17;7.13;;;6.43;;
65706;SDS011;52423;43.512;5.220;2024-02-14T08:32:44;9.60;;;8.68;;
65706;SDS011;52423;43.512;5.220;2024-02-14T08:35:10;12.40;;;11.13;;
65706;SDS011;52423;43.512;5.220;2024-02-14T08:37:35;13.18;;;11.65;;
65706;SDS011;52423;43.512;5.220;2024-02-14T08:40:03;11.52;;;10.38;;
65706;SDS011;52423;43.512;5.220;2024-02-14T08:42:31;13.57;;;11.85;;
65706;SDS011;52423;43.512;5.220;2024-02-14T08:44:57;12.30;;;11.10;;
65706;SDS011;52423;43.512;5.220;2024-02-14T08:47:22;10.27;;;9.15;;
65706;SDS011;52423;43.512;5.220;2024-02-14T08:49:47;16.02;;;11.30;;
65706;SDS011;52423;43.512;5.220;2024-02-14T08:52:13;14.82;;;13.15;;
65706;SDS011;52423;43.512;5.220;2024-02-14T08:54:38;14.65;;;11.43;;
65706;SDS011;52423;43.512;5.220;2024-02-14T08:57:04;19.75;;;13.80;;
65706;SDS011;52423;43.512;5.220;2024-02-14T08:59:29;23.92;;;18.45;;
65706;SDS011;52423;43.512;5.220;2024-02-14T09:01:55;20.73;;;16.08;;
65706;SDS011;52423;43.512;5.220;2024-02-14T09:04:21;12.27;;;10.85;;
65706;SDS011;52423;43.512;5.220;2024-02-14T09:06:46;13.40;;;10.77;;
65706;SDS011;52423;43.512;5.220;2024-02-14T09:09:11;13.77;;;10.00;;
65706;SDS011;52423;43.512;5.220;2024-02-14T09:11:39;16.73;;;15.05;;
65706;SDS011;52423;43.512;5.220;2024-02-14T09:14:06;17.30;;;13.93;;
65706;SDS011;52423;43.512;5.220;2024-02-14T09:16:34;13.40;;;10.77;;
65706;SDS011;52423;43.512;5.220;2024-02-14T09:19:00;10.40;;;7.30;;
65706;SDS011;52423;43.512;5.220;2024-02-14T09:21:26;9.27;;;8.05;;
65706;SDS011;52423;43.512;5.220;2024-02-14T09:23:53;7.03;;;6.13;;
65706;SDS011;52423;43.512;5.220;2024-02-14T09:26:18;6.28;;;5.57;;
65706;SDS011;52423;43.512;5.220;2024-02-14T09:28:43;8.45;;;7.43;;
65706;SDS011;52423;43.512;5.220;2024-02-14T09:31:09;6.65;;;5.63;;
65706;SDS011;52423;43.512;5.220;2024-02-14T09:33:36;6.38;;;5.35;;
65706;SDS011;52423;43.512;5.220;2024-02-14T09:36:02;7.32;;;6.20;;
65706;SDS011;52423;43.512;5.220;2024-02-14T09:38:29;9.23;;;8.13;;
65706;SDS011;52423;43.512;5.220;2024-02-14T09:40:54;8.02;;;6.78;;
65706;SDS011;52423;43.512;5.220;2024-02-14T09:43:31;10.73;;;9.65;;
65706;SDS011;52423;43.512;5.220;2024-02-14T09:45:59;16.83;;;11.40;;
65706;SDS011;52423;43.512;5.220;2024-02-14T09:48:25;14.10;;;12.73;;
65706;SDS011;52423;43.512;5.220;2024-02-14T09:50:52;15.05;;;13.65;;
65706;SDS011;52423;43.512;5.220;2024-02-14T09:53:18;17.08;;;15.40;;
65706;SDS011;52423;43.512;5.220;2024-02-14T09:55:45;15.68;;;14.05;;
65706;SDS011;52423;43.512;5.220;2024-02-14T09:58:11;16.08;;;14.43;;
65706;SDS011;52423;43.512;5.220;2024-02-14T10:00:37;17.90;;;14.32;;
65706;SDS011;52423;43.512;5.220;2024-02-14T10:03:03;16.65;;;14.98;;
65706;SDS011;52423;43.512;5.220;2024-02-14T10:05:28;16.70;;;14.35;;
65706;SDS011;52423;43.512;5.220;2024-02-14T10:07:56;17.40;;;14.82;;
65706;SDS011;52423;43.512;5.220;2024-02-14T10:10:22;17.50;;;15.13;;
65706;SDS011;52423;43.512;5.220;2024-02-14T10:12:47;15.90;;;14.38;;
65706;SDS011;52423;43.512;5.220;2024-02-14T10:15:12;16.50;;;14.80;;
65706;SDS011;52423;43.512;5.220;2024-02-14T10:17:41;15.98;;;14.45;;
65706;SDS011;52423;43.512;5.220;2024-02-14T10:20:06;17.40;;;15.70;;
65706;SDS011;52423;43.512;5.220;2024-02-14T10:22:36;16.95;;;14.55;;
65706;SDS011;52423;43.512;5.220;2024-02-14T10:25:03;16.00;;;14.27;;
65706;SDS011;52423;43.512;5.220;2024-02-14T10:27:32;16.00;;;14.32;;
65706;SDS011;52423;43.512;5.220;2024-02-14T10:29:57;17.92;;;15.27;;
65706;SDS011;52423;43.512;5.220;2024-02-14T10:32:24;16.15;;;14.75;;
65706;SDS011;52423;43.512;5.220;2024-02-14T10:34:50;15.48;;;13.43;;
65706;SDS011;52423;43.512;5.220;2024-02-14T10:37:16;16.55;;;14.98;;
65706;SDS011;52423;43.512;5.220;2024-02-14T10:39:43;14.30;;;12.70;;
65706;SDS011;52423;43.512;5.220;2024-02-14T10:42:12;17.35;;;12.70;;
65706;SDS011;52423;43.512;5.220;2024-02-14T10:44:38;15.88;;;13.25;;
65706;SDS011;52423;43.512;5.220;2024-02-14T10:47:03;15.60;;;13.23;;
65706;SDS011;52423;43.512;5.220;2024-02-14T10:49:35;13.55;;;12.18;;
65706;SDS011;52423;43.512;5.220;2024-02-14T10:52:02;13.68;;;12.25;;
65706;SDS011;52423;43.512;5.220;2024-02-14T10:54:32;9.68;;;8.68;;
65706;SDS011;52423;43.512;5.220;2024-02-14T10:57:02;10.38;;;8.50;;
65706;SDS011;52423;43.512;5.220;2024-02-14T10:59:32;10.60;;;8.55;;
65706;SDS011;52423;43.512;5.220;2024-02-14T11:01:59;23.15;;;16.70;;
65706;SDS011;52423;43.512;5.220;2024-02-14T11:04:24;8.10;;;7.40;;
65706;SDS011;52423;43.512;5.220;2024-02-14T11:06:53;3.85;;;3.55;;
65706;SDS011;52423;43.512;5.220;2024-02-14T11:09:21;7.45;;;3.50;;
65706;SDS011;52423;43.512;5.220;2024-02-14T11:11:47;8.23;;;5.53;;
65706;SDS011;52423;43.512;5.220;2024-02-14T11:14:15;7.22;;;5.80;;
65706;SDS011;52423;43.512;5.220;2024-02-14T11:16:47;6.65;;;6.00;;
65706;SDS011;52423;43.512;5.220;2024-02-14T11:21:42;12.15;;;9.50;;
65706;SDS011;52423;43.512;5.220;2024-02-14T11:24:10;11.98;;;10.15;;
65706;SDS011;52423;43.512;5.220;2024-02-14T11:26:40;12.93;;;11.68;;
65706;SDS011;52423;43.512;5.220;2024-02-14T11:29:05;14.27;;;12.85;;
65706;SDS011;52423;43.512;5.220;2024-02-14T11:31:33;15.55;;;13.40;;
65706;SDS011;52423;43.512;5.220;2024-02-14T11:34:04;14.80;;;13.30;;
65706;SDS011;52423;43.512;5.220;2024-02-14T11:36:31;15.93;;;14.25;;
65706;SDS011;52423;43.512;5.220;2024-02-14T11:38:58;14.23;;;12.82;;
65706;SDS011;52423;43.512;5.220;2024-02-14T11:41:24;14.90;;;13.50;;
65706;SDS011;52423;43.512;5.220;2024-02-14T11:43:52;14.95;;;13.45;;
65706;SDS011;52423;43.512;5.220;2024-02-14T11:46:17;15.20;;;13.70;;
65706;SDS011;52423;43.512;5.220;2024-02-14T11:48:43;14.68;;;12.60;;
65706;SDS011;52423;43.512;5.220;2024-02-14T11:51:11;13.95;;;11.05;;
65706;SDS011;52423;43.512;5.220;2024-02-14T11:53:36;14.52;;;12.95;;
65706;SDS011;52423;43.512;5.220;2024-02-14T11:56:04;14.00;;;11.10;;
65706;SDS011;52423;43.512;5.220;2024-02-14T11:58:30;14.23;;;12.07;;
65706;SDS011;52423;43.512;5.220;2024-02-14T12:00:56;12.68;;;11.52;;
65706;SDS011;52423;43.512;5.220;2024-02-14T12:03:22;14.48;;;13.27;;
65706;SDS011;52423;43.512;5.220;2024-02-14T12:05:52;13.57;;;12.18;;
65706;SDS011;52423;43.512;5.220;2024-02-14T12:08:18;10.98;;;9.88;;
65706;SDS011;52423;43.512;5.220;2024-02-14T12:10:45;13.88;;;8.55;;
65706;SDS011;52423;43.512;5.220;2024-02-14T12:13:19;10.15;;;9.02;;
65706;SDS011;52423;43.512;5.220;2024-02-14T12:15:46;11.25;;;10.02;;
65706;SDS011;52423;43.512;5.220;2024-02-14T12:18:13;13.48;;;12.18;;
65706;SDS011;52423;43.512;5.220;2024-02-14T12:20:39;13.35;;;9.00;;
65706;SDS011;52423;43.512;5.220;2024-02-14T12:23:05;11.45;;;10.45;;
65706;SDS011;52423;43.512;5.220;2024-02-14T12:25:31;10.55;;;9.55;;
65706;SDS011;52423;43.512;5.220;2024-02-14T12:27:56;12.68;;;11.07;;
65706;SDS011;52423;43.512;5.220;2024-02-14T12:30:23;11.45;;;10.35;;
65706;SDS011;52423;43.512;5.220;2024-02-14T12:33:06;11.07;;;10.05;;
65706;SDS011;52423;43.512;5.220;2024-02-14T12:35:34;14.48;;;13.00;;
65706;SDS011;52423;43.512;5.220;2024-02-14T12:38:07;12.60;;;11.30;;
65706;SDS011;52423;43.512;5.220;2024-02-14T12:40:36;11.27;;;10.10;;
65706;SDS011;52423;43.512;5.220;2024-02-14T12:43:02;10.32;;;9.32;;
65706;SDS011;52423;43.512;5.220;2024-02-14T12:45:27;12.43;;;11.32;;
65706;SDS011;52423;43.512;5.220;2024-02-14T12:47:53;11.07;;;9.80;;
65706;SDS011;52423;43.512;5.220;2024-02-14T12:50:18;11.45;;;10.38;;
65706;SDS011;52423;43.512;5.220;2024-02-14T12:52:45;11.85;;;10.75;;
65706;SDS011;52423;43.512;5.220;2024-02-14T12:55:11;11.07;;;10.02;;
65706;SDS011;52423;43.512;5.220;2024-02-14T12:57:37;10.60;;;9.52;;
65706;SDS011;52423;43.512;5.220;2024-02-14T13:00:04;9.98;;;8.98;;
65706;SDS011;52423;43.512;5.220;2024-02-14T13:02:34;9.50;;;8.43;;
65706;SDS011;52423;43.512;5.220;2024-02-14T13:05:00;9.77;;;7.22;;
65706;SDS011;52423;43.512;5.220;2024-02-14T13:07:26;9.63;;;8.75;;
65706;SDS011;52423;43.512;5.220;2024-02-14T13:09:52;10.27;;;9.18;;
65706;SDS011;52423;43.512;5.220;2024-02-14T13:12:18;11.10;;;10.10;;
65706;SDS011;52423;43.512;5.220;2024-02-14T13:14:43;12.63;;;8.07;;
65706;SDS011;52423;43.512;5.220;2024-02-14T13:17:09;9.38;;;7.20;;
65706;SDS011;52423;43.512;5.220;2024-02-14T13:19:36;8.35;;;6.93;;
65706;SDS011;52423;43.512;5.220;2024-02-14T13:22:01;7.57;;;6.90;;
65706;SDS011;52423;43.512;5.220;2024-02-14T13:24:27;7.20;;;6.35;;
65706;SDS011;52423;43.512;5.220;2024-02-14T13:26:53;10.10;;;9.20;;
65706;SDS011;52423;43.512;5.220;2024-02-14T13:29:18;7.55;;;6.68;;
65706;SDS011;52423;43.512;5.220;2024-02-14T13:31:44;7.70;;;6.80;;
65706;SDS011;52423;43.512;5.220;2024-02-14T13:34:10;8.63;;;5.65;;
65706;SDS011;52423;43.512;5.220;2024-02-14T13:36:36;8.23;;;5.72;;
65706;SDS011;52423;43.512;5.220;2024-02-14T13:39:02;7.13;;;6.15;;
65706;SDS011;52423;43.512;5.220;2024-02-14T13:41:27;6.93;;;6.22;;
65706;SDS011;52423;43.512;5.220;2024-02-14T13:43:53;4.80;;;3.33;;
65706;SDS011;52423;43.512;5.220;2024-02-14T13:46:19;5.38;;;4.80;;
65706;SDS011;52423;43.512;5.220;2024-02-14T13:48:44;5.90;;;4.07;;
65706;SDS011;52423;43.512;5.220;2024-02-14T13:51:10;5.07;;;3.88;;
65706;SDS011;52423;43.512;5.220;2024-02-14T13:53:35;5.18;;;4.78;;
65706;SDS011;52423;43.512;5.220;2024-02-14T13:56:01;8.38;;;3.80;;
65706;SDS011;52423;43.512;5.220;2024-02-14T13:58:26;3.83;;;3.42;;
65706;SDS011;52423;43.512;5.220;2024-02-14T14:00:52;4.95;;;3.40;;
65706;SDS011;52423;43.512;5.220;2024-02-14T14:03:18;3.55;;;2.50;;
65706;SDS011;52423;43.512;5.220;2024-02-14T14:05:43;4.47;;;4.13;;
65706;SDS011;52423;43.512;5.220;2024-02-14T14:08:08;2.70;;;2.33;;
65706;SDS011;52423;43.512;5.220;2024-02-14T14:10:34;4.45;;;4.22;;
65706;SDS011;52423;43.512;5.220;2024-02-14T14:12:59;5.43;;;5.03;;
65706;SDS011;52423;43.512;5.220;2024-02-14T14:15:25;3.72;;;3.42;;
65706;SDS011;52423;43.512;5.220;2024-02-14T14:17:51;4.28;;;3.97;;
65706;SDS011;52423;43.512;5.220;2024-02-14T14:20:17;4.72;;;4.32;;
65706;SDS011;52423;43.512;5.220;2024-02-14T14:22:43;3.63;;;3.33;;
65706;SDS011;52423;43.512;5.220;2024-02-14T14:25:08;3.92;;;2.28;;
65706;SDS011;52423;43.512;5.220;2024-02-14T14:27:34;4.47;;;1.80;;
65706;SDS011;52423;43.512;5.220;2024-02-14T14:30:00;3.33;;;3.13;;
65706;SDS011;52423;43.512;5.220;2024-02-14T14:32:25;4.03;;;3.58;;
65706;SDS011;52423;43.512;5.220;2024-02-14T14:34:50;4.03;;;2.85;;